sensor_id;sensor_type;location;lat;lon;timestamp;P1;durP1;ratioP1;P2;durP2;ratioP2
75680;SDS011;64294;49.176;16.626;2023-09-19T00:01:14;11.48;;;8.35;;
75680;SDS011;64294;49.176;16.626;2023-09-19T00:03:40;13.80;;;8.75;;
75680;SDS011;64294;49.176;16.626;2023-09-19T00:06:07;14.27;;;8.10;;
75680;SDS011;64294;49.176;16.626;2023-09-19T00:08:33;20.80;;;7.70;;
75680;SDS011;64294;49.176;16.626;2023-09-19T00:10:59;11.27;;;7.13;;
75680;SDS011;64294;49.176;16.626;2023-09-19T00:13:31;12.65;;;7.38;;
75680;SDS011;64294;49.176;16.626;2023-09-19T00:15:58;10.13;;;6.18;;
75680;SDS011;64294;49.176;16.626;2023-09-19T00:18:25;10.60;;;5.63;;
75680;SDS011;64294;49.176;16.626;2023-09-19T00:21:00;8.10;;;4.60;;
75680;SDS011;64294;49.176;16.626;2023-09-19T00:23:26;8.07;;;4.57;;
75680;SDS011;64294;49.176;16.626;2023-09-19T00:25:58;8.32;;;3.38;;
75680;SDS011;64294;49.176;16.626;2023-09-19T00:28:24;8.02;;;4.03;;
75680;SDS011;64294;49.176;16.626;2023-09-19T00:30:50;8.00;;;3.40;;
75680;SDS011;64294;49.176;16.626;2023-09-19T00:33:15;7.05;;;2.92;;
75680;SDS011;64294;49.176;16.626;2023-09-19T00:35:46;5.55;;;2.75;;
75680;SDS011;64294;49.176;16.626;2023-09-19T00:38:23;6.07;;;2.75;;
75680;SDS011;64294;49.176;16.626;2023-09-19T00:40:52;4.78;;;2.70;;
75680;SDS011;64294;49.176;16.626;2023-09-19T00:43:19;4.38;;;2.40;;
75680;SDS011;64294;49.176;16.626;2023-09-19T00:45:49;6.35;;;2.22;;
75680;SDS011;64294;49.176;16.626;2023-09-19T00:48:21;6.03;;;2.20;;
75680;SDS011;64294;49.176;16.626;2023-09-19T00:50:47;5.15;;;2.00;;
75680;SDS011;64294;49.176;16.626;2023-09-19T00:53:15;5.78;;;2.17;;
75680;SDS011;64294;49.176;16.626;2023-09-19T00:55:45;3.65;;;2.08;;
75680;SDS011;64294;49.176;16.626;2023-09-19T00:58:11;4.25;;;1.90;;
75680;SDS011;64294;49.176;16.626;2023-09-19T01:00:45;5.40;;;2.20;;
75680;SDS011;64294;49.176;16.626;2023-09-19T01:03:13;4.30;;;2.00;;
75680;SDS011;64294;49.176;16.626;2023-09-19T01:05:41;4.63;;;2.17;;
75680;SDS011;64294;49.176;16.626;2023-09-19T01:08:07;3.22;;;1.80;;
75680;SDS011;64294;49.176;16.626;2023-09-19T01:10:33;4.25;;;2.00;;
75680;SDS011;64294;49.176;16.626;2023-09-19T01:13:07;1.55;;;1.40;;
75680;SDS011;64294;49.176;16.626;2023-09-19T01:24:35;4.78;;;1.25;;
75680;SDS011;64294;49.176;16.626;2023-09-19T01:29:48;3.92;;;1.20;;
75680;SDS011;64294;49.176;16.626;2023-09-19T01:32:19;4.35;;;1.20;;
75680;SDS011;64294;49.176;16.626;2023-09-19T01:37:21;6.75;;;1.83;;
75680;SDS011;64294;49.176;16.626;2023-09-19T01:39:55;3.05;;;1.30;;
75680;SDS011;64294;49.176;16.626;2023-09-19T01:43:05;4.93;;;1.42;;
75680;SDS011;64294;49.176;16.626;2023-09-19T01:46:01;5.88;;;1.40;;
75680;SDS011;64294;49.176;16.626;2023-09-19T01:48:48;3.28;;;1.50;;
75680;SDS011;64294;49.176;16.626;2023-09-19T01:51:18;3.90;;;1.88;;
75680;SDS011;64294;49.176;16.626;2023-09-19T01:53:51;6.07;;;2.10;;
75680;SDS011;64294;49.176;16.626;2023-09-19T01:56:34;5.25;;;1.80;;
75680;SDS011;64294;49.176;16.626;2023-09-19T01:59:06;4.18;;;1.60;;
75680;SDS011;64294;49.176;16.626;2023-09-19T02:01:35;3.05;;;1.70;;
75680;SDS011;64294;49.176;16.626;2023-09-19T02:04:06;3.13;;;1.52;;
75680;SDS011;64294;49.176;16.626;2023-09-19T02:06:32;6.00;;;1.40;;
75680;SDS011;64294;49.176;16.626;2023-09-19T02:09:00;5.38;;;1.60;;
75680;SDS011;64294;49.176;16.626;2023-09-19T02:11:26;4.53;;;1.42;;
75680;SDS011;64294;49.176;16.626;2023-09-19T02:13:51;2.90;;;1.33;;
75680;SDS011;64294;49.176;16.626;2023-09-19T02:16:19;4.47;;;1.50;;
75680;SDS011;64294;49.176;16.626;2023-09-19T02:18:47;2.65;;;1.15;;
75680;SDS011;64294;49.176;16.626;2023-09-19T02:21:14;2.70;;;1.40;;
75680;SDS011;64294;49.176;16.626;2023-09-19T02:23:40;5.38;;;1.33;;
75680;SDS011;64294;49.176;16.626;2023-09-19T02:26:06;3.88;;;1.35;;
75680;SDS011;64294;49.176;16.626;2023-09-19T02:28:32;6.05;;;1.55;;
75680;SDS011;64294;49.176;16.626;2023-09-19T02:30:58;2.92;;;1.50;;
75680;SDS011;64294;49.176;16.626;2023-09-19T02:33:23;2.72;;;1.55;;
75680;SDS011;64294;49.176;16.626;2023-09-19T02:35:49;2.88;;;1.35;;
75680;SDS011;64294;49.176;16.626;2023-09-19T02:38:26;3.80;;;1.30;;
75680;SDS011;64294;49.176;16.626;2023-09-19T02:40:52;4.38;;;1.45;;
75680;SDS011;64294;49.176;16.626;2023-09-19T02:43:20;2.88;;;1.60;;
75680;SDS011;64294;49.176;16.626;2023-09-19T02:45:48;2.78;;;1.50;;
75680;SDS011;64294;49.176;16.626;2023-09-19T02:48:20;4.97;;;1.40;;
75680;SDS011;64294;49.176;16.626;2023-09-19T02:50:46;3.58;;;1.40;;
75680;SDS011;64294;49.176;16.626;2023-09-19T02:53:14;5.30;;;1.63;;
75680;SDS011;64294;49.176;16.626;2023-09-19T02:55:40;2.97;;;1.30;;
75680;SDS011;64294;49.176;16.626;2023-09-19T02:58:05;2.78;;;1.70;;
75680;SDS011;64294;49.176;16.626;2023-09-19T03:00:36;2.83;;;1.55;;
75680;SDS011;64294;49.176;16.626;2023-09-19T03:03:05;3.15;;;1.60;;
75680;SDS011;64294;49.176;16.626;2023-09-19T03:05:31;3.08;;;1.52;;
75680;SDS011;64294;49.176;16.626;2023-09-19T03:07:57;2.50;;;1.50;;
75680;SDS011;64294;49.176;16.626;2023-09-19T03:10:25;3.20;;;1.58;;
75680;SDS011;64294;49.176;16.626;2023-09-19T03:12:51;3.63;;;1.73;;
75680;SDS011;64294;49.176;16.626;2023-09-19T03:15:16;3.40;;;1.30;;
75680;SDS011;64294;49.176;16.626;2023-09-19T03:17:46;2.92;;;1.52;;
75680;SDS011;64294;49.176;16.626;2023-09-19T03:20:12;3.55;;;1.60;;
75680;SDS011;64294;49.176;16.626;2023-09-19T03:22:42;3.10;;;1.35;;
75680;SDS011;64294;49.176;16.626;2023-09-19T03:25:08;3.70;;;1.63;;
75680;SDS011;64294;49.176;16.626;2023-09-19T03:27:34;6.07;;;1.90;;
75680;SDS011;64294;49.176;16.626;2023-09-19T03:30:00;4.68;;;1.58;;
75680;SDS011;64294;49.176;16.626;2023-09-19T03:32:26;6.22;;;1.80;;
75680;SDS011;64294;49.176;16.626;2023-09-19T03:34:51;2.90;;;1.65;;
75680;SDS011;64294;49.176;16.626;2023-09-19T03:37:17;2.35;;;1.55;;
75680;SDS011;64294;49.176;16.626;2023-09-19T03:39:45;2.08;;;1.23;;
75680;SDS011;64294;49.176;16.626;2023-09-19T03:42:10;3.75;;;1.65;;
75680;SDS011;64294;49.176;16.626;2023-09-19T03:44:35;3.40;;;1.58;;
75680;SDS011;64294;49.176;16.626;2023-09-19T03:47:01;3.50;;;1.80;;
75680;SDS011;64294;49.176;16.626;2023-09-19T03:49:26;2.80;;;1.60;;
75680;SDS011;64294;49.176;16.626;2023-09-19T03:51:52;2.97;;;2.15;;
75680;SDS011;64294;49.176;16.626;2023-09-19T03:54:18;4.50;;;1.70;;
75680;SDS011;64294;49.176;16.626;2023-09-19T03:56:44;4.07;;;1.58;;
75680;SDS011;64294;49.176;16.626;2023-09-19T03:59:10;3.47;;;1.60;;
75680;SDS011;64294;49.176;16.626;2023-09-19T04:01:37;4.07;;;1.90;;
75680;SDS011;64294;49.176;16.626;2023-09-19T04:04:06;3.05;;;1.67;;
75680;SDS011;64294;49.176;16.626;2023-09-19T04:06:35;2.78;;;1.58;;
75680;SDS011;64294;49.176;16.626;2023-09-19T04:09:01;3.78;;;1.95;;
75680;SDS011;64294;49.176;16.626;2023-09-19T04:11:28;6.53;;;1.88;;
75680;SDS011;64294;49.176;16.626;2023-09-19T04:13:55;4.05;;;2.30;;
75680;SDS011;64294;49.176;16.626;2023-09-19T04:16:21;7.35;;;2.03;;
75680;SDS011;64294;49.176;16.626;2023-09-19T04:18:46;5.13;;;1.85;;
75680;SDS011;64294;49.176;16.626;2023-09-19T04:21:11;5.03;;;2.00;;
75680;SDS011;64294;49.176;16.626;2023-09-19T04:23:37;5.65;;;1.95;;
75680;SDS011;64294;49.176;16.626;2023-09-19T04:26:02;3.28;;;2.10;;
75680;SDS011;64294;49.176;16.626;2023-09-19T04:28:31;4.05;;;2.22;;
75680;SDS011;64294;49.176;16.626;2023-09-19T04:30:59;3.80;;;2.00;;
75680;SDS011;64294;49.176;16.626;2023-09-19T04:33:25;4.55;;;2.00;;
75680;SDS011;64294;49.176;16.626;2023-09-19T04:35:55;3.80;;;1.80;;
75680;SDS011;64294;49.176;16.626;2023-09-19T04:38:21;4.22;;;2.08;;
75680;SDS011;64294;49.176;16.626;2023-09-19T04:40:46;4.68;;;2.13;;
75680;SDS011;64294;49.176;16.626;2023-09-19T04:43:12;5.38;;;2.10;;
75680;SDS011;64294;49.176;16.626;2023-09-19T04:45:41;4.68;;;2.10;;
75680;SDS011;64294;49.176;16.626;2023-09-19T04:48:10;6.32;;;2.17;;
75680;SDS011;64294;49.176;16.626;2023-09-19T04:50:38;3.17;;;1.60;;
75680;SDS011;64294;49.176;16.626;2023-09-19T04:53:08;5.25;;;2.10;;
75680;SDS011;64294;49.176;16.626;2023-09-19T04:55:33;3.63;;;1.80;;
75680;SDS011;64294;49.176;16.626;2023-09-19T04:57:59;4.43;;;1.80;;
75680;SDS011;64294;49.176;16.626;2023-09-19T05:00:24;4.95;;;1.88;;
75680;SDS011;64294;49.176;16.626;2023-09-19T05:02:53;3.40;;;1.73;;
75680;SDS011;64294;49.176;16.626;2023-09-19T05:05:24;4.82;;;1.75;;
75680;SDS011;64294;49.176;16.626;2023-09-19T05:07:51;4.70;;;1.60;;
75680;SDS011;64294;49.176;16.626;2023-09-19T05:10:19;3.15;;;1.60;;
75680;SDS011;64294;49.176;16.626;2023-09-19T05:12:45;3.38;;;1.58;;
75680;SDS011;64294;49.176;16.626;2023-09-19T05:15:13;3.67;;;1.38;;
75680;SDS011;64294;49.176;16.626;2023-09-19T05:17:40;4.10;;;1.50;;
75680;SDS011;64294;49.176;16.626;2023-09-19T05:20:05;1.75;;;1.27;;
75680;SDS011;64294;49.176;16.626;2023-09-19T05:22:49;3.97;;;1.75;;
75680;SDS011;64294;49.176;16.626;2023-09-19T05:25:18;7.68;;;2.50;;
75680;SDS011;64294;49.176;16.626;2023-09-19T05:27:45;6.75;;;2.45;;
75680;SDS011;64294;49.176;16.626;2023-09-19T05:30:13;5.82;;;2.30;;
75680;SDS011;64294;49.176;16.626;2023-09-19T05:32:40;7.78;;;2.30;;
75680;SDS011;64294;49.176;16.626;2023-09-19T05:35:06;12.57;;;2.85;;
75680;SDS011;64294;49.176;16.626;2023-09-19T05:37:34;9.65;;;2.45;;
75680;SDS011;64294;49.176;16.626;2023-09-19T05:40:00;10.90;;;2.53;;
75680;SDS011;64294;49.176;16.626;2023-09-19T05:42:26;4.57;;;2.35;;
75680;SDS011;64294;49.176;16.626;2023-09-19T05:44:52;6.78;;;2.10;;
75680;SDS011;64294;49.176;16.626;2023-09-19T05:47:17;6.40;;;2.30;;
75680;SDS011;64294;49.176;16.626;2023-09-19T05:49:43;6.38;;;2.22;;
75680;SDS011;64294;49.176;16.626;2023-09-19T05:52:09;6.40;;;2.65;;
75680;SDS011;64294;49.176;16.626;2023-09-19T05:54:34;6.95;;;2.67;;
75680;SDS011;64294;49.176;16.626;2023-09-19T05:57:02;6.10;;;2.00;;
75680;SDS011;64294;49.176;16.626;2023-09-19T05:59:28;3.70;;;1.65;;
75680;SDS011;64294;49.176;16.626;2023-09-19T06:01:54;3.67;;;1.90;;
75680;SDS011;64294;49.176;16.626;2023-09-19T06:04:20;5.75;;;1.70;;
75680;SDS011;64294;49.176;16.626;2023-09-19T06:06:49;5.30;;;1.98;;
75680;SDS011;64294;49.176;16.626;2023-09-19T06:09:15;3.17;;;1.80;;
75680;SDS011;64294;49.176;16.626;2023-09-19T06:11:43;8.25;;;1.88;;
75680;SDS011;64294;49.176;16.626;2023-09-19T06:14:09;4.55;;;1.80;;
75680;SDS011;64294;49.176;16.626;2023-09-19T06:16:35;6.25;;;2.22;;
75680;SDS011;64294;49.176;16.626;2023-09-19T06:19:03;10.75;;;2.33;;
75680;SDS011;64294;49.176;16.626;2023-09-19T06:21:31;8.20;;;2.40;;
75680;SDS011;64294;49.176;16.626;2023-09-19T06:23:59;6.18;;;2.15;;
75680;SDS011;64294;49.176;16.626;2023-09-19T06:26:24;7.82;;;1.95;;
75680;SDS011;64294;49.176;16.626;2023-09-19T06:28:52;9.35;;;2.20;;
75680;SDS011;64294;49.176;16.626;2023-09-19T06:31:18;9.13;;;2.10;;
75680;SDS011;64294;49.176;16.626;2023-09-19T06:33:43;3.63;;;2.05;;
75680;SDS011;64294;49.176;16.626;2023-09-19T06:36:09;8.43;;;1.90;;
75680;SDS011;64294;49.176;16.626;2023-09-19T06:38:36;5.70;;;2.33;;
75680;SDS011;64294;49.176;16.626;2023-09-19T06:41:02;6.78;;;2.10;;
75680;SDS011;64294;49.176;16.626;2023-09-19T06:43:33;5.55;;;2.20;;
75680;SDS011;64294;49.176;16.626;2023-09-19T06:45:59;5.40;;;1.83;;
75680;SDS011;64294;49.176;16.626;2023-09-19T06:48:26;8.73;;;2.10;;
75680;SDS011;64294;49.176;16.626;2023-09-19T06:50:54;5.75;;;2.28;;
75680;SDS011;64294;49.176;16.626;2023-09-19T06:53:20;6.97;;;2.50;;
75680;SDS011;64294;49.176;16.626;2023-09-19T06:55:47;6.07;;;1.90;;
75680;SDS011;64294;49.176;16.626;2023-09-19T06:58:12;5.28;;;1.95;;
75680;SDS011;64294;49.176;16.626;2023-09-19T07:00:44;5.70;;;2.10;;
75680;SDS011;64294;49.176;16.626;2023-09-19T07:03:10;5.28;;;2.30;;
75680;SDS011;64294;49.176;16.626;2023-09-19T07:05:47;4.15;;;2.28;;
75680;SDS011;64294;49.176;16.626;2023-09-19T07:08:13;8.90;;;2.47;;
75680;SDS011;64294;49.176;16.626;2023-09-19T07:10:39;6.35;;;2.50;;
75680;SDS011;64294;49.176;16.626;2023-09-19T07:13:06;5.20;;;2.50;;
75680;SDS011;64294;49.176;16.626;2023-09-19T07:15:38;6.47;;;2.60;;
75680;SDS011;64294;49.176;16.626;2023-09-19T07:18:05;9.23;;;2.83;;
75680;SDS011;64294;49.176;16.626;2023-09-19T07:20:31;6.55;;;2.63;;
75680;SDS011;64294;49.176;16.626;2023-09-19T07:22:59;6.75;;;2.88;;
75680;SDS011;64294;49.176;16.626;2023-09-19T07:25:26;8.10;;;2.65;;
75680;SDS011;64294;49.176;16.626;2023-09-19T07:27:51;6.97;;;2.20;;
75680;SDS011;64294;49.176;16.626;2023-09-19T07:30:20;6.75;;;2.28;;
75680;SDS011;64294;49.176;16.626;2023-09-19T07:32:48;7.20;;;2.50;;
75680;SDS011;64294;49.176;16.626;2023-09-19T07:35:17;7.10;;;2.70;;
75680;SDS011;64294;49.176;16.626;2023-09-19T07:37:45;6.82;;;2.20;;
75680;SDS011;64294;49.176;16.626;2023-09-19T07:40:14;7.35;;;2.40;;
75680;SDS011;64294;49.176;16.626;2023-09-19T07:42:40;5.90;;;2.33;;
75680;SDS011;64294;49.176;16.626;2023-09-19T07:45:09;5.72;;;2.50;;
75680;SDS011;64294;49.176;16.626;2023-09-19T07:47:40;8.52;;;2.75;;
75680;SDS011;64294;49.176;16.626;2023-09-19T07:50:09;6.80;;;2.92;;
75680;SDS011;64294;49.176;16.626;2023-09-19T07:52:36;5.93;;;2.50;;
75680;SDS011;64294;49.176;16.626;2023-09-19T07:55:04;5.15;;;2.50;;
75680;SDS011;64294;49.176;16.626;2023-09-19T07:57:34;5.80;;;2.85;;
75680;SDS011;64294;49.176;16.626;2023-09-19T08:00:03;6.80;;;2.75;;
75680;SDS011;64294;49.176;16.626;2023-09-19T08:02:41;6.00;;;2.60;;
75680;SDS011;64294;49.176;16.626;2023-09-19T08:05:10;4.47;;;2.50;;
75680;SDS011;64294;49.176;16.626;2023-09-19T08:07:39;7.18;;;2.67;;
75680;SDS011;64294;49.176;16.626;2023-09-19T08:10:06;5.20;;;2.22;;
75680;SDS011;64294;49.176;16.626;2023-09-19T08:12:36;4.93;;;2.30;;
75680;SDS011;64294;49.176;16.626;2023-09-19T08:15:11;3.83;;;2.35;;
75680;SDS011;64294;49.176;16.626;2023-09-19T08:17:43;6.28;;;2.10;;
75680;SDS011;64294;49.176;16.626;2023-09-19T08:20:09;5.10;;;2.30;;
75680;SDS011;64294;49.176;16.626;2023-09-19T08:22:48;6.40;;;2.30;;
75680;SDS011;64294;49.176;16.626;2023-09-19T08:25:19;7.97;;;2.30;;
75680;SDS011;64294;49.176;16.626;2023-09-19T08:27:46;4.72;;;2.30;;
75680;SDS011;64294;49.176;16.626;2023-09-19T08:30:16;7.47;;;2.40;;
75680;SDS011;64294;49.176;16.626;2023-09-19T08:32:49;8.48;;;2.40;;
75680;SDS011;64294;49.176;16.626;2023-09-19T08:35:14;4.47;;;2.25;;
75680;SDS011;64294;49.176;16.626;2023-09-19T08:37:44;5.22;;;2.00;;
75680;SDS011;64294;49.176;16.626;2023-09-19T08:40:13;5.05;;;2.10;;
75680;SDS011;64294;49.176;16.626;2023-09-19T08:42:52;4.75;;;2.20;;
75680;SDS011;64294;49.176;16.626;2023-09-19T08:45:24;6.50;;;2.22;;
75680;SDS011;64294;49.176;16.626;2023-09-19T08:50:30;4.88;;;1.95;;
75680;SDS011;64294;49.176;16.626;2023-09-19T08:53:01;4.07;;;2.30;;
75680;SDS011;64294;49.176;16.626;2023-09-19T08:55:37;6.35;;;2.40;;
75680;SDS011;64294;49.176;16.626;2023-09-19T08:58:06;4.40;;;2.10;;
75680;SDS011;64294;49.176;16.626;2023-09-19T09:00:38;4.53;;;1.90;;
75680;SDS011;64294;49.176;16.626;2023-09-19T09:03:08;3.58;;;1.80;;
75680;SDS011;64294;49.176;16.626;2023-09-19T09:05:35;3.85;;;1.65;;
75680;SDS011;64294;49.176;16.626;2023-09-19T09:08:02;4.20;;;1.90;;
75680;SDS011;64294;49.176;16.626;2023-09-19T09:10:31;5.57;;;1.83;;
75680;SDS011;64294;49.176;16.626;2023-09-19T09:12:59;6.82;;;1.75;;
75680;SDS011;64294;49.176;16.626;2023-09-19T09:15:25;2.97;;;1.60;;
75680;SDS011;64294;49.176;16.626;2023-09-19T09:17:50;4.95;;;2.17;;
75680;SDS011;64294;49.176;16.626;2023-09-19T09:20:19;6.32;;;2.40;;
75680;SDS011;64294;49.176;16.626;2023-09-19T09:22:51;4.05;;;1.90;;
75680;SDS011;64294;49.176;16.626;2023-09-19T09:25:23;8.60;;;1.95;;
75680;SDS011;64294;49.176;16.626;2023-09-19T09:28:23;4.28;;;1.48;;
75680;SDS011;64294;49.176;16.626;2023-09-19T09:30:50;3.72;;;1.50;;
75680;SDS011;64294;49.176;16.626;2023-09-19T09:33:18;2.67;;;1.60;;
75680;SDS011;64294;49.176;16.626;2023-09-19T09:38:22;5.07;;;1.73;;
75680;SDS011;64294;49.176;16.626;2023-09-19T09:40:57;3.40;;;1.73;;
75680;SDS011;64294;49.176;16.626;2023-09-19T09:43:31;3.83;;;1.60;;
75680;SDS011;64294;49.176;16.626;2023-09-19T09:46:07;2.20;;;1.40;;
75680;SDS011;64294;49.176;16.626;2023-09-19T09:49:03;2.35;;;1.35;;
75680;SDS011;64294;49.176;16.626;2023-09-19T09:54:26;2.58;;;1.42;;
75680;SDS011;64294;49.176;16.626;2023-09-19T09:56:59;3.50;;;1.70;;
75680;SDS011;64294;49.176;16.626;2023-09-19T09:59:56;4.25;;;1.60;;
75680;SDS011;64294;49.176;16.626;2023-09-19T10:02:41;3.58;;;1.55;;
75680;SDS011;64294;49.176;16.626;2023-09-19T10:05:16;3.40;;;1.63;;
75680;SDS011;64294;49.176;16.626;2023-09-19T10:07:46;3.92;;;1.42;;
75680;SDS011;64294;49.176;16.626;2023-09-19T10:10:37;2.10;;;1.30;;
75680;SDS011;64294;49.176;16.626;2023-09-19T10:13:12;2.78;;;1.42;;
75680;SDS011;64294;49.176;16.626;2023-09-19T10:15:43;2.63;;;1.50;;
75680;SDS011;64294;49.176;16.626;2023-09-19T10:18:16;2.15;;;1.65;;
75680;SDS011;64294;49.176;16.626;2023-09-19T10:20:45;2.85;;;1.40;;
75680;SDS011;64294;49.176;16.626;2023-09-19T10:23:15;4.70;;;1.95;;
75680;SDS011;64294;49.176;16.626;2023-09-19T10:25:48;8.75;;;1.95;;
75680;SDS011;64294;49.176;16.626;2023-09-19T10:28:15;3.30;;;1.30;;
75680;SDS011;64294;49.176;16.626;2023-09-19T10:30:45;3.65;;;1.40;;
75680;SDS011;64294;49.176;16.626;2023-09-19T10:33:13;3.50;;;1.45;;
75680;SDS011;64294;49.176;16.626;2023-09-19T10:35:42;5.00;;;1.40;;
75680;SDS011;64294;49.176;16.626;2023-09-19T10:38:10;3.22;;;1.60;;
75680;SDS011;64294;49.176;16.626;2023-09-19T10:40:36;3.47;;;1.75;;
75680;SDS011;64294;49.176;16.626;2023-09-19T10:43:06;2.08;;;1.58;;
75680;SDS011;64294;49.176;16.626;2023-09-19T10:45:35;5.00;;;1.60;;
75680;SDS011;64294;49.176;16.626;2023-09-19T10:48:03;3.42;;;1.30;;
75680;SDS011;64294;49.176;16.626;2023-09-19T10:50:31;3.50;;;1.60;;
75680;SDS011;64294;49.176;16.626;2023-09-19T10:53:00;4.78;;;1.60;;
75680;SDS011;64294;49.176;16.626;2023-09-19T10:55:29;2.13;;;1.30;;
75680;SDS011;64294;49.176;16.626;2023-09-19T10:58:00;1.45;;;1.30;;
75680;SDS011;64294;49.176;16.626;2023-09-19T11:00:26;2.78;;;1.45;;
75680;SDS011;64294;49.176;16.626;2023-09-19T11:03:34;3.22;;;1.50;;
75680;SDS011;64294;49.176;16.626;2023-09-19T11:06:04;3.88;;;1.50;;
75680;SDS011;64294;49.176;16.626;2023-09-19T11:11:45;2.08;;;1.10;;
75680;SDS011;64294;49.176;16.626;2023-09-19T11:17:02;3.63;;;1.40;;
75680;SDS011;64294;49.176;16.626;2023-09-19T11:30:50;4.82;;;1.70;;
75680;SDS011;64294;49.176;16.626;2023-09-19T11:49:16;4.70;;;2.17;;
75680;SDS011;64294;49.176;16.626;2023-09-19T11:51:48;6.25;;;1.70;;
75680;SDS011;64294;49.176;16.626;2023-09-19T11:54:16;2.88;;;1.50;;
75680;SDS011;64294;49.176;16.626;2023-09-19T11:56:43;4.18;;;1.45;;
75680;SDS011;64294;49.176;16.626;2023-09-19T11:59:10;2.42;;;1.42;;
75680;SDS011;64294;49.176;16.626;2023-09-19T12:01:37;6.15;;;1.50;;
75680;SDS011;64294;49.176;16.626;2023-09-19T12:04:08;2.85;;;1.40;;
75680;SDS011;64294;49.176;16.626;2023-09-19T12:06:36;3.13;;;1.40;;
75680;SDS011;64294;49.176;16.626;2023-09-19T12:09:08;3.47;;;1.55;;
75680;SDS011;64294;49.176;16.626;2023-09-19T12:11:42;3.60;;;1.80;;
75680;SDS011;64294;49.176;16.626;2023-09-19T12:14:10;4.13;;;1.52;;
75680;SDS011;64294;49.176;16.626;2023-09-19T12:16:36;5.65;;;1.40;;
75680;SDS011;64294;49.176;16.626;2023-09-19T12:19:18;4.03;;;1.40;;
75680;SDS011;64294;49.176;16.626;2023-09-19T12:22:02;6.70;;;1.40;;
75680;SDS011;64294;49.176;16.626;2023-09-19T12:24:35;3.90;;;1.50;;
75680;SDS011;64294;49.176;16.626;2023-09-19T12:27:06;3.15;;;1.40;;
75680;SDS011;64294;49.176;16.626;2023-09-19T12:29:46;3.03;;;1.50;;
75680;SDS011;64294;49.176;16.626;2023-09-19T12:32:37;8.30;;;1.65;;
75680;SDS011;64294;49.176;16.626;2023-09-19T12:35:05;5.93;;;1.42;;
75680;SDS011;64294;49.176;16.626;2023-09-19T12:37:35;1.98;;;1.42;;
75680;SDS011;64294;49.176;16.626;2023-09-19T12:40:08;4.13;;;1.23;;
75680;SDS011;64294;49.176;16.626;2023-09-19T12:42:47;5.47;;;1.67;;
75680;SDS011;64294;49.176;16.626;2023-09-19T12:45:14;4.60;;;1.40;;
75680;SDS011;64294;49.176;16.626;2023-09-19T12:53:32;2.75;;;1.20;;
75680;SDS011;64294;49.176;16.626;2023-09-19T12:56:01;1.92;;;1.30;;
75680;SDS011;64294;49.176;16.626;2023-09-19T12:58:34;2.75;;;1.13;;
75680;SDS011;64294;49.176;16.626;2023-09-19T13:01:00;1.63;;;1.17;;
75680;SDS011;64294;49.176;16.626;2023-09-19T13:03:28;2.40;;;1.23;;
75680;SDS011;64294;49.176;16.626;2023-09-19T13:06:02;1.60;;;1.20;;
75680;SDS011;64294;49.176;16.626;2023-09-19T13:08:32;4.57;;;1.27;;
75680;SDS011;64294;49.176;16.626;2023-09-19T13:11:06;2.17;;;1.10;;
75680;SDS011;64294;49.176;16.626;2023-09-19T13:13:42;3.72;;;1.50;;
75680;SDS011;64294;49.176;16.626;2023-09-19T13:16:10;2.50;;;1.60;;
75680;SDS011;64294;49.176;16.626;2023-09-19T13:18:47;4.03;;;1.30;;
75680;SDS011;64294;49.176;16.626;2023-09-19T13:21:28;2.28;;;1.33;;
75680;SDS011;64294;49.176;16.626;2023-09-19T13:24:17;2.30;;;1.20;;
75680;SDS011;64294;49.176;16.626;2023-09-19T13:26:55;2.10;;;1.25;;
75680;SDS011;64294;49.176;16.626;2023-09-19T13:29:21;3.10;;;1.10;;
75680;SDS011;64294;49.176;16.626;2023-09-19T13:31:50;3.03;;;1.30;;
75680;SDS011;64294;49.176;16.626;2023-09-19T13:34:20;2.42;;;1.27;;
75680;SDS011;64294;49.176;16.626;2023-09-19T13:36:46;6.20;;;1.13;;
75680;SDS011;64294;49.176;16.626;2023-09-19T13:39:13;3.78;;;1.45;;
75680;SDS011;64294;49.176;16.626;2023-09-19T13:41:44;1.85;;;1.30;;
75680;SDS011;64294;49.176;16.626;2023-09-19T13:44:14;3.40;;;1.30;;
75680;SDS011;64294;49.176;16.626;2023-09-19T13:46:41;2.53;;;1.30;;
75680;SDS011;64294;49.176;16.626;2023-09-19T13:49:10;2.35;;;1.20;;
75680;SDS011;64294;49.176;16.626;2023-09-19T13:51:36;2.75;;;1.25;;
75680;SDS011;64294;49.176;16.626;2023-09-19T13:54:02;2.63;;;1.10;;
75680;SDS011;64294;49.176;16.626;2023-09-19T13:56:27;4.55;;;1.30;;
75680;SDS011;64294;49.176;16.626;2023-09-19T13:58:53;4.40;;;1.23;;
75680;SDS011;64294;49.176;16.626;2023-09-19T14:01:22;2.63;;;1.20;;
75680;SDS011;64294;49.176;16.626;2023-09-19T14:03:47;1.65;;;1.20;;
75680;SDS011;64294;49.176;16.626;2023-09-19T14:06:15;2.05;;;1.27;;
75680;SDS011;64294;49.176;16.626;2023-09-19T14:08:43;5.28;;;1.70;;
75680;SDS011;64294;49.176;16.626;2023-09-19T14:11:12;7.13;;;1.50;;
75680;SDS011;64294;49.176;16.626;2023-09-19T14:13:39;3.03;;;1.60;;
75680;SDS011;64294;49.176;16.626;2023-09-19T14:16:05;4.28;;;1.23;;
75680;SDS011;64294;49.176;16.626;2023-09-19T14:18:33;3.80;;;1.40;;
75680;SDS011;64294;49.176;16.626;2023-09-19T14:21:03;1.90;;;1.45;;
75680;SDS011;64294;49.176;16.626;2023-09-19T14:23:29;3.20;;;1.50;;
75680;SDS011;64294;49.176;16.626;2023-09-19T14:26:00;3.45;;;1.50;;
75680;SDS011;64294;49.176;16.626;2023-09-19T14:28:29;2.95;;;1.50;;
75680;SDS011;64294;49.176;16.626;2023-09-19T14:30:55;2.75;;;1.70;;
75680;SDS011;64294;49.176;16.626;2023-09-19T14:33:20;3.33;;;1.60;;
75680;SDS011;64294;49.176;16.626;2023-09-19T14:35:46;1.80;;;1.40;;
75680;SDS011;64294;49.176;16.626;2023-09-19T14:38:11;5.35;;;1.75;;
75680;SDS011;64294;49.176;16.626;2023-09-19T14:40:36;3.55;;;1.50;;
75680;SDS011;64294;49.176;16.626;2023-09-19T14:43:02;4.35;;;1.58;;
75680;SDS011;64294;49.176;16.626;2023-09-19T14:45:31;2.75;;;1.60;;
75680;SDS011;64294;49.176;16.626;2023-09-19T14:47:57;4.35;;;2.15;;
75680;SDS011;64294;49.176;16.626;2023-09-19T14:50:22;5.40;;;1.83;;
75680;SDS011;64294;49.176;16.626;2023-09-19T14:52:48;7.85;;;1.98;;
75680;SDS011;64294;49.176;16.626;2023-09-19T14:55:17;5.63;;;2.05;;
75680;SDS011;64294;49.176;16.626;2023-09-19T14:57:45;3.53;;;1.90;;
75680;SDS011;64294;49.176;16.626;2023-09-19T15:00:17;2.72;;;1.83;;
75680;SDS011;64294;49.176;16.626;2023-09-19T15:02:46;3.33;;;1.90;;
75680;SDS011;64294;49.176;16.626;2023-09-19T15:05:14;3.15;;;1.58;;
75680;SDS011;64294;49.176;16.626;2023-09-19T15:07:40;5.68;;;1.80;;
75680;SDS011;64294;49.176;16.626;2023-09-19T15:10:09;3.15;;;1.67;;
75680;SDS011;64294;49.176;16.626;2023-09-19T15:12:37;3.33;;;1.65;;
75680;SDS011;64294;49.176;16.626;2023-09-19T15:15:06;4.75;;;2.05;;
75680;SDS011;64294;49.176;16.626;2023-09-19T15:17:37;3.20;;;1.67;;
75680;SDS011;64294;49.176;16.626;2023-09-19T15:20:06;2.85;;;1.50;;
75680;SDS011;64294;49.176;16.626;2023-09-19T15:22:32;2.35;;;1.80;;
75680;SDS011;64294;49.176;16.626;2023-09-19T15:24:59;3.33;;;1.60;;
75680;SDS011;64294;49.176;16.626;2023-09-19T15:27:27;6.53;;;1.90;;
75680;SDS011;64294;49.176;16.626;2023-09-19T15:29:55;3.70;;;1.80;;
75680;SDS011;64294;49.176;16.626;2023-09-19T15:32:23;4.43;;;1.95;;
75680;SDS011;64294;49.176;16.626;2023-09-19T15:34:49;2.70;;;1.70;;
75680;SDS011;64294;49.176;16.626;2023-09-19T15:37:14;3.78;;;2.08;;
75680;SDS011;64294;49.176;16.626;2023-09-19T15:39:42;3.38;;;1.65;;
75680;SDS011;64294;49.176;16.626;2023-09-19T15:42:10;3.60;;;1.77;;
75680;SDS011;64294;49.176;16.626;2023-09-19T15:44:36;4.22;;;1.90;;
75680;SDS011;64294;49.176;16.626;2023-09-19T15:47:02;5.03;;;1.85;;